sensor_id;sensor_type;location;lat;lon;timestamp;temperature;humidity
47368;DHT22;34646;47.964;7.982;2022-08-03T00:05:59;24.00;56.90
47368;DHT22;34646;47.964;7.982;2022-08-03T00:12:00;24.00;56.90
47368;DHT22;34646;47.964;7.982;2022-08-03T00:18:01;24.00;56.90
47368;DHT22;34646;47.964;7.982;2022-08-03T00:24:01;23.90;56.70
47368;DHT22;34646;47.964;7.982;2022-08-03T00:30:02;23.90;56.70
47368;DHT22;34646;47.964;7.982;2022-08-03T00:36:03;23.90;56.60
47368;DHT22;34646;47.964;7.982;2022-08-03T00:42:04;23.90;56.40
47368;DHT22;34646;47.964;7.982;2022-08-03T00:48:07;23.90;56.50
47368;DHT22;34646;47.964;7.982;2022-08-03T00:54:08;23.90;56.70
47368;DHT22;34646;47.964;7.982;2022-08-03T01:00:11;23.90;56.60
47368;DHT22;34646;47.964;7.982;2022-08-03T01:06:17;23.90;56.70
47368;DHT22;34646;47.964;7.982;2022-08-03T01:18:29;23.90;56.70
47368;DHT22;34646;47.964;7.982;2022-08-03T01:30:56;23.90;56.80
47368;DHT22;34646;47.964;7.982;2022-08-03T01:37:00;23.90;56.80
47368;DHT22;34646;47.964;7.982;2022-08-03T01:43:03;23.90;56.90
47368;DHT22;34646;47.964;7.982;2022-08-03T01:49:09;23.90;56.90
47368;DHT22;34646;47.964;7.982;2022-08-03T01:55:12;23.90;56.90
47368;DHT22;34646;47.964;7.982;2022-08-03T02:01:14;23.90;56.70
47368;DHT22;34646;47.964;7.982;2022-08-03T02:07:16;23.90;56.80
47368;DHT22;34646;47.964;7.982;2022-08-03T02:13:18;23.90;56.80
47368;DHT22;34646;47.964;7.982;2022-08-03T02:19:20;23.90;56.80
47368;DHT22;34646;47.964;7.982;2022-08-03T02:25:21;23.80;56.70
47368;DHT22;34646;47.964;7.982;2022-08-03T02:31:27;23.90;56.80
47368;DHT22;34646;47.964;7.982;2022-08-03T02:37:33;23.90;56.90
47368;DHT22;34646;47.964;7.982;2022-08-03T02:43:34;23.90;56.90
47368;DHT22;34646;47.964;7.982;2022-08-03T02:49:37;23.80;56.90
47368;DHT22;34646;47.964;7.982;2022-08-03T02:55:38;23.80;56.90
47368;DHT22;34646;47.964;7.982;2022-08-03T03:01:40;23.80;56.90
47368;DHT22;34646;47.964;7.982;2022-08-03T03:07:41;23.80;56.80
47368;DHT22;34646;47.964;7.982;2022-08-03T03:13:42;23.80;57.50
47368;DHT22;34646;47.964;7.982;2022-08-03T03:19:44;23.80;56.90
47368;DHT22;34646;47.964;7.982;2022-08-03T03:25:45;23.80;56.90
47368;DHT22;34646;47.964;7.982;2022-08-03T03:31:47;23.80;57.00
47368;DHT22;34646;47.964;7.982;2022-08-03T03:37:48;23.80;57.00
47368;DHT22;34646;47.964;7.982;2022-08-03T03:43:49;23.80;57.10
47368;DHT22;34646;47.964;7.982;2022-08-03T03:49:50;23.80;57.20
47368;DHT22;34646;47.964;7.982;2022-08-03T03:55:51;23.80;57.20
47368;DHT22;34646;47.964;7.982;2022-08-03T04:01:53;23.80;57.30
47368;DHT22;34646;47.964;7.982;2022-08-03T04:08:08;23.80;57.30
47368;DHT22;34646;47.964;7.982;2022-08-03T04:14:31;23.80;57.50
47368;DHT22;34646;47.964;7.982;2022-08-03T04:20:35;23.80;57.60
47368;DHT22;34646;47.964;7.982;2022-08-03T04:26:39;23.80;57.60
47368;DHT22;34646;47.964;7.982;2022-08-03T04:32:42;23.70;57.70
47368;DHT22;34646;47.964;7.982;2022-08-03T04:44:57;23.20;59.40
47368;DHT22;34646;47.964;7.982;2022-08-03T04:50:58;23.00;59.90
47368;DHT22;34646;47.964;7.982;2022-08-03T04:57:00;23.00;60.50
47368;DHT22;34646;47.964;7.982;2022-08-03T05:03:01;22.90;60.90
47368;DHT22;34646;47.964;7.982;2022-08-03T05:09:01;22.80;61.00
47368;DHT22;34646;47.964;7.982;2022-08-03T05:15:03;22.70;61.30
47368;DHT22;34646;47.964;7.982;2022-08-03T05:21:04;22.70;62.10
47368;DHT22;34646;47.964;7.982;2022-08-03T05:27:05;22.70;61.50
47368;DHT22;34646;47.964;7.982;2022-08-03T05:33:05;22.70;61.90
47368;DHT22;34646;47.964;7.982;2022-08-03T05:39:06;22.70;61.70
47368;DHT22;34646;47.964;7.982;2022-08-03T05:45:07;22.70;62.00
47368;DHT22;34646;47.964;7.982;2022-08-03T05:51:14;22.80;61.40
47368;DHT22;34646;47.964;7.982;2022-08-03T05:57:15;22.80;61.80
47368;DHT22;34646;47.964;7.982;2022-08-03T06:03:15;22.80;62.20
47368;DHT22;34646;47.964;7.982;2022-08-03T06:09:16;22.80;62.50
47368;DHT22;34646;47.964;7.982;2022-08-03T06:15:17;22.80;62.60
47368;DHT22;34646;47.964;7.982;2022-08-03T06:21:18;22.90;62.90
47368;DHT22;34646;47.964;7.982;2022-08-03T06:27:18;22.90;62.90
47368;DHT22;34646;47.964;7.982;2022-08-03T06:33:19;22.90;62.80
47368;DHT22;34646;47.964;7.982;2022-08-03T06:39:21;22.90;62.20
47368;DHT22;34646;47.964;7.982;2022-08-03T06:45:21;23.00;62.10
47368;DHT22;34646;47.964;7.982;2022-08-03T06:51:22;23.00;63.30
47368;DHT22;34646;47.964;7.982;2022-08-03T06:57:23;23.10;62.60
47368;DHT22;34646;47.964;7.982;2022-08-03T07:03:24;23.20;62.10
47368;DHT22;34646;47.964;7.982;2022-08-03T07:09:25;23.30;61.80
47368;DHT22;34646;47.964;7.982;2022-08-03T07:15:26;23.30;61.80
47368;DHT22;34646;47.964;7.982;2022-08-03T07:21:26;23.30;61.80
47368;DHT22;34646;47.964;7.982;2022-08-03T07:27:27;23.40;61.60
47368;DHT22;34646;47.964;7.982;2022-08-03T07:33:29;23.40;61.40
47368;DHT22;34646;47.964;7.982;2022-08-03T07:39:29;23.40;61.30
47368;DHT22;34646;47.964;7.982;2022-08-03T07:45:30;23.40;61.30
47368;DHT22;34646;47.964;7.982;2022-08-03T07:51:31;23.50;61.20
47368;DHT22;34646;47.964;7.982;2022-08-03T07:57:31;23.50;61.30
47368;DHT22;34646;47.964;7.982;2022-08-03T08:03:32;23.50;61.20
47368;DHT22;34646;47.964;7.982;2022-08-03T08:09:33;23.50;61.40
47368;DHT22;34646;47.964;7.982;2022-08-03T08:15:34;23.50;61.30
47368;DHT22;34646;47.964;7.982;2022-08-03T08:21:35;23.50;61.20
47368;DHT22;34646;47.964;7.982;2022-08-03T08:27:43;23.60;61.30
47368;DHT22;34646;47.964;7.982;2022-08-03T08:33:44;23.60;61.20
47368;DHT22;34646;47.964;7.982;2022-08-03T08:39:44;23.60;61.40
47368;DHT22;34646;47.964;7.982;2022-08-03T08:45:49;23.60;61.20
47368;DHT22;34646;47.964;7.982;2022-08-03T08:51:52;23.60;61.20
47368;DHT22;34646;47.964;7.982;2022-08-03T08:58:14;23.70;61.50
47368;DHT22;34646;47.964;7.982;2022-08-03T09:04:16;23.70;61.40
47368;DHT22;34646;47.964;7.982;2022-08-03T09:10:17;23.70;61.60
47368;DHT22;34646;47.964;7.982;2022-08-03T09:16:21;23.70;61.60
47368;DHT22;34646;47.964;7.982;2022-08-03T09:22:22;23.70;62.10
47368;DHT22;34646;47.964;7.982;2022-08-03T09:28:23;23.80;62.30
47368;DHT22;34646;47.964;7.982;2022-08-03T09:34:24;23.80;62.30
47368;DHT22;34646;47.964;7.982;2022-08-03T09:40:36;23.80;62.20
47368;DHT22;34646;47.964;7.982;2022-08-03T09:46:49;23.80;62.30
47368;DHT22;34646;47.964;7.982;2022-08-03T09:52:50;23.80;62.40
47368;DHT22;34646;47.964;7.982;2022-08-03T09:58:51;23.90;62.50
47368;DHT22;34646;47.964;7.982;2022-08-03T10:04:52;23.90;62.50
47368;DHT22;34646;47.964;7.982;2022-08-03T10:10:53;23.90;62.50
47368;DHT22;34646;47.964;7.982;2022-08-03T10:16:54;23.90;62.60
47368;DHT22;34646;47.964;7.982;2022-08-03T10:22:55;23.90;62.60
47368;DHT22;34646;47.964;7.982;2022-08-03T10:28:56;24.00;62.70
47368;DHT22;34646;47.964;7.982;2022-08-03T10:35:12;24.00;62.80
47368;DHT22;34646;47.964;7.982;2022-08-03T10:41:15;24.00;62.80
47368;DHT22;34646;47.964;7.982;2022-08-03T10:47:17;24.00;62.80
47368;DHT22;34646;47.964;7.982;2022-08-03T10:53:37;24.00;62.50
47368;DHT22;34646;47.964;7.982;2022-08-03T11:05:48;24.00;63.00
47368;DHT22;34646;47.964;7.982;2022-08-03T11:11:49;24.00;62.90
47368;DHT22;34646;47.964;7.982;2022-08-03T11:18:12;24.10;63.00
47368;DHT22;34646;47.964;7.982;2022-08-03T11:30:57;24.10;62.90
47368;DHT22;34646;47.964;7.982;2022-08-03T11:37:18;24.10;62.90
47368;DHT22;34646;47.964;7.982;2022-08-03T11:49:29;24.10;62.80
47368;DHT22;34646;47.964;7.982;2022-08-03T11:55:30;24.20;62.90
47368;DHT22;34646;47.964;7.982;2022-08-03T12:01:31;24.20;62.90
47368;DHT22;34646;47.964;7.982;2022-08-03T12:07:31;24.20;62.90
47368;DHT22;34646;47.964;7.982;2022-08-03T12:13:46;24.20;62.90
47368;DHT22;34646;47.964;7.982;2022-08-03T12:19:47;24.20;62.90
47368;DHT22;34646;47.964;7.982;2022-08-03T12:25:48;24.20;63.00
47368;DHT22;34646;47.964;7.982;2022-08-03T12:31:48;24.20;63.10
47368;DHT22;34646;47.964;7.982;2022-08-03T12:37:50;24.20;63.70
47368;DHT22;34646;47.964;7.982;2022-08-03T12:43:51;24.20;63.30
47368;DHT22;34646;47.964;7.982;2022-08-03T12:49:52;24.20;63.30
47368;DHT22;34646;47.964;7.982;2022-08-03T12:56:00;24.20;63.30
47368;DHT22;34646;47.964;7.982;2022-08-03T13:02:02;24.20;63.40
47368;DHT22;34646;47.964;7.982;2022-08-03T13:08:04;24.20;63.60
47368;DHT22;34646;47.964;7.982;2022-08-03T13:14:16;24.20;63.60
47368;DHT22;34646;47.964;7.982;2022-08-03T13:20:17;24.20;63.50
47368;DHT22;34646;47.964;7.982;2022-08-03T13:26:18;24.20;63.60
47368;DHT22;34646;47.964;7.982;2022-08-03T13:32:19;24.20;63.40
47368;DHT22;34646;47.964;7.982;2022-08-03T13:38:20;24.20;63.40
47368;DHT22;34646;47.964;7.982;2022-08-03T13:44:21;24.20;63.40
47368;DHT22;34646;47.964;7.982;2022-08-03T13:50:22;24.20;63.50
47368;DHT22;34646;47.964;7.982;2022-08-03T13:56:22;24.20;63.60
47368;DHT22;34646;47.964;7.982;2022-08-03T14:02:23;24.20;63.70
47368;DHT22;34646;47.964;7.982;2022-08-03T14:08:23;24.20;63.80
47368;DHT22;34646;47.964;7.982;2022-08-03T14:14:24;24.20;63.90
47368;DHT22;34646;47.964;7.982;2022-08-03T14:20:25;24.20;64.00
47368;DHT22;34646;47.964;7.982;2022-08-03T14:26:26;24.20;64.50
47368;DHT22;34646;47.964;7.982;2022-08-03T14:32:27;24.20;64.30
47368;DHT22;34646;47.964;7.982;2022-08-03T14:38:28;24.30;64.60
47368;DHT22;34646;47.964;7.982;2022-08-03T14:44:28;24.30;64.20
47368;DHT22;34646;47.964;7.982;2022-08-03T14:50:29;24.30;64.10
47368;DHT22;34646;47.964;7.982;2022-08-03T14:56:30;24.30;64.10
47368;DHT22;34646;47.964;7.982;2022-08-03T15:02:30;24.30;64.10
47368;DHT22;34646;47.964;7.982;2022-08-03T15:08:32;24.30;64.00
47368;DHT22;34646;47.964;7.982;2022-08-03T15:14:33;24.40;64.00
47368;DHT22;34646;47.964;7.982;2022-08-03T15:20:34;24.40;64.40
47368;DHT22;34646;47.964;7.982;2022-08-03T15:26:34;24.40;63.70
47368;DHT22;34646;47.964;7.982;2022-08-03T15:32:35;24.40;63.80
47368;DHT22;34646;47.964;7.982;2022-08-03T15:38:36;24.40;63.90
47368;DHT22;34646;47.964;7.982;2022-08-03T15:44:36;24.40;63.80
47368;DHT22;34646;47.964;7.982;2022-08-03T15:50:37;24.40;63.70
47368;DHT22;34646;47.964;7.982;2022-08-03T15:56:38;24.50;63.60
47368;DHT22;34646;47.964;7.982;2022-08-03T16:02:41;24.50;63.50
47368;DHT22;34646;47.964;7.982;2022-08-03T16:08:42;24.50;63.60
47368;DHT22;34646;47.964;7.982;2022-08-03T16:14:43;24.50;63.60
47368;DHT22;34646;47.964;7.982;2022-08-03T16:20:45;24.50;63.60
47368;DHT22;34646;47.964;7.982;2022-08-03T16:26:46;24.60;63.70
47368;DHT22;34646;47.964;7.982;2022-08-03T16:32:47;24.50;63.60
47368;DHT22;34646;47.964;7.982;2022-08-03T16:38:47;24.60;63.70
47368;DHT22;34646;47.964;7.982;2022-08-03T16:44:48;24.60;63.70
47368;DHT22;34646;47.964;7.982;2022-08-03T16:50:49;24.70;63.60
47368;DHT22;34646;47.964;7.982;2022-08-03T16:56:50;24.70;63.70
47368;DHT22;34646;47.964;7.982;2022-08-03T17:02:51;24.60;63.70
47368;DHT22;34646;47.964;7.982;2022-08-03T17:08:53;24.70;63.80
47368;DHT22;34646;47.964;7.982;2022-08-03T17:14:53;24.70;64.00
47368;DHT22;34646;47.964;7.982;2022-08-03T17:20:55;24.70;64.00
47368;DHT22;34646;47.964;7.982;2022-08-03T17:27:00;24.80;63.90
47368;DHT22;34646;47.964;7.982;2022-08-03T17:33:01;24.70;63.80
47368;DHT22;34646;47.964;7.982;2022-08-03T17:39:04;24.70;64.10
47368;DHT22;34646;47.964;7.982;2022-08-03T17:45:05;24.80;64.20
47368;DHT22;34646;47.964;7.982;2022-08-03T17:51:13;24.80;64.20
47368;DHT22;34646;47.964;7.982;2022-08-03T17:57:48;24.80;64.00
47368;DHT22;34646;47.964;7.982;2022-08-03T18:03:50;24.80;63.90
47368;DHT22;34646;47.964;7.982;2022-08-03T18:09:54;24.70;63.90
47368;DHT22;34646;47.964;7.982;2022-08-03T18:16:02;24.80;63.80
47368;DHT22;34646;47.964;7.982;2022-08-03T18:22:03;24.80;63.80
47368;DHT22;34646;47.964;7.982;2022-08-03T18:28:05;24.80;63.70
47368;DHT22;34646;47.964;7.982;2022-08-03T18:34:06;24.80;63.60
47368;DHT22;34646;47.964;7.982;2022-08-03T18:40:08;24.80;63.60
47368;DHT22;34646;47.964;7.982;2022-08-03T18:46:28;24.80;63.80
47368;DHT22;34646;47.964;7.982;2022-08-03T18:52:49;24.90;63.70
47368;DHT22;34646;47.964;7.982;2022-08-03T18:58:58;24.90;63.60
47368;DHT22;34646;47.964;7.982;2022-08-03T19:05:05;24.90;63.70
47368;DHT22;34646;47.964;7.982;2022-08-03T19:11:10;24.90;63.80
47368;DHT22;34646;47.964;7.982;2022-08-03T19:17:13;24.90;63.80
47368;DHT22;34646;47.964;7.982;2022-08-03T19:23:15;24.90;63.90
47368;DHT22;34646;47.964;7.982;2022-08-03T19:29:17;24.90;64.00
47368;DHT22;34646;47.964;7.982;2022-08-03T19:35:21;24.90;64.00
47368;DHT22;34646;47.964;7.982;2022-08-03T19:41:26;24.90;64.10
47368;DHT22;34646;47.964;7.982;2022-08-03T19:47:39;24.90;64.00
47368;DHT22;34646;47.964;7.982;2022-08-03T19:53:45;24.90;64.00
47368;DHT22;34646;47.964;7.982;2022-08-03T19:59:47;24.90;64.00
47368;DHT22;34646;47.964;7.982;2022-08-03T20:05:48;24.90;64.00
47368;DHT22;34646;47.964;7.982;2022-08-03T20:11:50;24.90;64.20
47368;DHT22;34646;47.964;7.982;2022-08-03T20:17:51;24.90;64.10
47368;DHT22;34646;47.964;7.982;2022-08-03T20:23:58;24.90;64.10
47368;DHT22;34646;47.964;7.982;2022-08-03T20:30:00;24.90;64.00
47368;DHT22;34646;47.964;7.982;2022-08-03T20:36:01;24.90;63.90
47368;DHT22;34646;47.964;7.982;2022-08-03T20:42:03;24.90;63.80
47368;DHT22;34646;47.964;7.982;2022-08-03T20:48:04;24.90;63.60
47368;DHT22;34646;47.964;7.982;2022-08-03T20:54:06;24.90;63.40
47368;DHT22;34646;47.964;7.982;2022-08-03T21:00:07;24.90;63.30
47368;DHT22;34646;47.964;7.982;2022-08-03T21:06:15;24.90;63.20
47368;DHT22;34646;47.964;7.982;2022-08-03T21:12:38;24.90;63.00
47368;DHT22;34646;47.964;7.982;2022-08-03T21:18:53;24.90;62.60
47368;DHT22;34646;47.964;7.982;2022-08-03T21:24:55;24.90;62.50
47368;DHT22;34646;47.964;7.982;2022-08-03T21:30:57;24.90;62.20
47368;DHT22;34646;47.964;7.982;2022-08-03T21:36:58;24.90;62.00
47368;DHT22;34646;47.964;7.982;2022-08-03T21:42:59;24.90;61.80
47368;DHT22;34646;47.964;7.982;2022-08-03T21:49:03;24.90;61.70
47368;DHT22;34646;47.964;7.982;2022-08-03T21:55:04;24.90;61.70
47368;DHT22;34646;47.964;7.982;2022-08-03T22:01:06;24.90;61.70
47368;DHT22;34646;47.964;7.982;2022-08-03T22:07:08;24.90;61.60
47368;DHT22;34646;47.964;7.982;2022-08-03T22:13:09;24.90;61.30
47368;DHT22;34646;47.964;7.982;2022-08-03T22:19:09;24.90;60.90
47368;DHT22;34646;47.964;7.982;2022-08-03T22:25:13;24.90;61.10
47368;DHT22;34646;47.964;7.982;2022-08-03T22:31:14;24.90;60.20
47368;DHT22;34646;47.964;7.982;2022-08-03T22:37:18;24.90;60.20
47368;DHT22;34646;47.964;7.982;2022-08-03T22:43:26;24.90;60.20
47368;DHT22;34646;47.964;7.982;2022-08-03T22:49:27;24.90;60.00
47368;DHT22;34646;47.964;7.982;2022-08-03T22:55:30;24.90;59.90
47368;DHT22;34646;47.964;7.982;2022-08-03T23:01:36;24.90;59.70
47368;DHT22;34646;47.964;7.982;2022-08-03T23:07:37;24.90;59.60
47368;DHT22;34646;47.964;7.982;2022-08-03T23:13:38;24.90;59.50
47368;DHT22;34646;47.964;7.982;2022-08-03T23:19:42;24.90;59.40
47368;DHT22;34646;47.964;7.982;2022-08-03T23:25:44;24.90;59.50
47368;DHT22;34646;47.964;7.982;2022-08-03T23:31:45;24.90;59.50
47368;DHT22;34646;47.964;7.982;2022-08-03T23:37:46;24.90;59.00
47368;DHT22;34646;47.964;7.982;2022-08-03T23:43:51;24.90;58.90
47368;DHT22;34646;47.964;7.982;2022-08-03T23:49:52;24.90;58.90
